Time;durP1;ratioP1;P1;durP2;ratioP2;P2;SDS_P1;SDS_P2;PMS_P1;PMS_P2;Temp;Humidity;BMP_temperature;BMP_pressure;BME280_temperature;BME280_humidity;BME280_pressure;Samples;Min_cycle;Max_cycle;Signal;HPM_P1;HPM_P2
2023/03/06 00:01:00;;;;;;;4.82;2.05;;;6.50;96.50;;;;;;5031968;28;20032;-74
2023/03/06 00:03:26;;;;;;;7.90;1.17;;;6.50;96.40;;;;;;5032313;28;20116;-74
2023/03/06 00:05:55;;;;;;;6.45;1.20;;;6.50;96.60;;;;;;5030930;28;20029;-73
2023/03/06 00:08:22;;;;;;;7.13;1.55;;;6.50;96.60;;;;;;5031071;28;20022;-72
2023/03/06 00:10:48;;;;;;;6.47;1.52;;;6.50;96.50;;;;;;5029992;28;20426;-73
2023/03/06 00:13:18;;;;;;;3.90;1.48;;;6.50;96.50;;;;;;5030879;28;20026;-74
2023/03/06 00:15:45;;;;;;;1.52;0.70;;;6.60;96.40;;;;;;5031773;28;20398;-72
2023/03/06 00:18:11;;;;;;;2.85;1.10;;;6.60;96.40;;;;;;5031745;28;20377;-73
2023/03/06 00:20:39;;;;;;;3.53;1.30;;;6.50;96.50;;;;;;5031633;28;20029;-73
2023/03/06 00:23:05;;;;;;;5.53;1.20;;;6.40;96.60;;;;;;5032088;28;20021;-73
2023/03/06 00:25:30;;;;;;;6.97;1.52;;;6.50;96.60;;;;;;5031493;28;20091;-73
2023/03/06 00:27:56;;;;;;;2.85;1.13;;;6.40;96.70;;;;;;5031638;28;20515;-73
2023/03/06 00:30:23;;;;;;;3.95;1.27;;;6.50;96.70;;;;;;5031321;28;20045;-74
2023/03/06 00:32:49;;;;;;;6.33;1.60;;;6.50;96.80;;;;;;5030527;28;20083;-74
2023/03/06 00:35:15;;;;;;;5.32;1.27;;;6.40;96.80;;;;;;5032117;28;20404;-73
2023/03/06 00:37:42;;;;;;;5.30;1.30;;;6.40;96.80;;;;;;5030293;28;20049;-73
2023/03/06 00:40:11;;;;;;;5.13;1.20;;;6.50;96.80;;;;;;5030446;28;20104;-73
2023/03/06 00:42:36;;;;;;;4.80;1.80;;;6.50;97.00;;;;;;5031389;28;20034;-72
2023/03/06 00:45:02;;;;;;;6.90;1.27;;;6.60;96.80;;;;;;5030224;28;20040;-72
2023/03/06 00:47:28;;;;;;;3.58;1.10;;;6.60;96.70;;;;;;5030735;28;20091;-73
2023/03/06 00:49:54;;;;;;;3.78;1.30;;;6.50;96.70;;;;;;5030212;28;20094;-74
2023/03/06 00:52:19;;;;;;;6.05;1.90;;;6.50;96.80;;;;;;5031124;28;20030;-73
2023/03/06 00:54:45;;;;;;;5.95;1.50;;;6.50;96.90;;;;;;5031154;28;20033;-73
2023/03/06 00:57:10;;;;;;;6.38;1.60;;;6.50;96.90;;;;;;5031100;28;20124;-73
2023/03/06 00:59:36;;;;;;;3.60;1.42;;;6.50;96.80;;;;;;5030982;28;20039;-72
2023/03/06 01:02:03;;;;;;;5.97;1.63;;;6.50;96.80;;;;;;5031503;28;20017;-73
2023/03/06 01:04:29;;;;;;;5.25;1.65;;;6.50;96.80;;;;;;5031155;28;20061;-73
2023/03/06 01:06:54;;;;;;;4.97;1.70;;;6.60;96.80;;;;;;5031281;28;20037;-73
2023/03/06 01:09:20;;;;;;;7.07;1.95;;;6.50;96.80;;;;;;5030719;28;20425;-73
2023/03/06 01:11:46;;;;;;;3.92;1.40;;;6.30;97.10;;;;;;5031116;28;20025;-72
2023/03/06 01:14:12;;;;;;;4.50;1.38;;;6.50;97.10;;;;;;5031345;28;20156;-72
2023/03/06 01:16:37;;;;;;;8.38;1.63;;;6.50;97.00;;;;;;5030972;28;20049;-73
2023/03/06 01:19:03;;;;;;;7.55;1.70;;;6.40;97.10;;;;;;5029664;28;20111;-73
2023/03/06 01:21:29;;;;;;;5.07;1.58;;;6.40;97.20;;;;;;5030580;28;20474;-72
2023/03/06 01:23:55;;;;;;;5.22;1.83;;;6.30;97.20;;;;;;5030706;28;20507;-73
2023/03/06 01:26:20;;;;;;;2.78;1.60;;;6.20;97.40;;;;;;5031086;28;20033;-71
2023/03/06 01:28:46;;;;;;;6.63;1.80;;;6.20;97.70;;;;;;5030423;28;20049;-72
2023/03/06 01:31:13;;;;;;;9.10;1.77;;;6.20;97.60;;;;;;5030404;28;20079;-71
2023/03/06 01:33:38;;;;;;;3.70;1.42;;;6.00;97.80;;;;;;5029461;28;20041;-72
2023/03/06 01:36:07;;;;;;;8.98;1.75;;;6.10;97.80;;;;;;5030368;28;20120;-71
2023/03/06 01:38:34;;;;;;;13.55;2.60;;;6.20;97.90;;;;;;5031353;28;20095;-72
2023/03/06 01:41:04;;;;;;;8.52;3.38;;;6.20;97.80;;;;;;5029524;28;20503;-73
2023/03/06 01:43:36;;;;;;;5.80;2.15;;;6.20;98.00;;;;;;5030485;28;20133;-71
2023/03/06 01:46:32;;;;;;;3.67;1.77;;;6.30;97.80;;;;;;5030622;28;20116;-72
2023/03/06 01:49:09;;;;;;;9.85;1.77;;;6.30;97.70;;;;;;5030576;28;20045;-72
2023/03/06 01:52:12;;;;;;;4.75;1.77;;;6.10;97.80;;;;;;5030391;28;20034;-71
2023/03/06 01:54:44;;;;;;;5.93;1.92;;;6.00;98.30;;;;;;5027489;28;20072;-72
2023/03/06 01:57:19;;;;;;;8.48;1.83;;;6.10;98.10;;;;;;5030525;28;20053;-73
2023/03/06 01:59:48;;;;;;;11.23;2.53;;;6.10;98.10;;;;;;5029350;28;20029;-72
2023/03/06 02:02:14;;;;;;;8.95;2.30;;;6.10;98.00;;;;;;5030717;28;20030;-72
2023/03/06 02:04:41;;;;;;;3.92;1.80;;;6.20;98.00;;;;;;5029281;28;20033;-72
2023/03/06 02:07:08;;;;;;;4.25;2.08;;;6.20;98.00;;;;;;5030222;28;20553;-71
2023/03/06 02:09:35;;;;;;;6.13;1.92;;;6.10;98.30;;;;;;5028564;28;20034;-73
2023/03/06 02:12:04;;;;;;;4.47;2.13;;;6.20;98.00;;;;;;5030138;28;20033;-72
2023/03/06 02:14:30;;;;;;;7.68;2.38;;;6.10;98.10;;;;;;5030667;28;20037;-73
2023/03/06 02:16:56;;;;;;;7.55;2.65;;;6.20;97.90;;;;;;5030093;28;20375;-73
2023/03/06 02:19:43;;;;;;;8.43;2.42;;;6.20;98.00;;;;;;5030094;28;20060;-72
2023/03/06 02:22:10;;;;;;;7.72;2.33;;;6.10;98.00;;;;;;5030143;28;20025;-72
2023/03/06 02:24:42;;;;;;;5.63;2.22;;;6.20;98.00;;;;;;5030077;28;20116;-72
2023/03/06 02:27:11;;;;;;;6.10;2.35;;;6.30;97.90;;;;;;5029117;28;20033;-72
2023/03/06 02:29:37;;;;;;;9.52;2.90;;;6.20;97.90;;;;;;5029581;28;20069;-72
2023/03/06 02:32:03;;;;;;;6.95;2.33;;;6.00;98.00;;;;;;5030418;28;20065;-71
2023/03/06 02:34:29;;;;;;;10.52;2.65;;;6.00;98.20;;;;;;5033711;28;20480;-72
2023/03/06 02:37:01;;;;;;;5.25;1.90;;;6.00;98.40;;;;;;5015946;28;20064;-72
2023/03/06 02:39:30;;;;;;;12.15;2.58;;;6.00;98.40;;;;;;5012967;28;20061;-72
2023/03/06 02:41:56;;;;;;;7.63;2.38;;;6.00;98.40;;;;;;5013828;28;20030;-72
2023/03/06 02:44:22;;;;;;;7.45;2.63;;;5.90;98.50;;;;;;5014357;28;20026;-71
2023/03/06 02:46:48;;;;;;;5.40;2.17;;;6.00;98.40;;;;;;5014059;28;20504;-72
2023/03/06 02:49:14;;;;;;;7.65;2.40;;;6.10;98.20;;;;;;5013663;28;20057;-72
2023/03/06 02:51:39;;;;;;;8.80;2.20;;;6.10;98.20;;;;;;5013702;28;20045;-72
2023/03/06 02:54:05;;;;;;;5.65;2.38;;;6.10;98.20;;;;;;5013717;28;20038;-73
2023/03/06 02:56:31;;;;;;;3.63;2.15;;;6.00;98.40;;;;;;5014310;28;20029;-72
2023/03/06 02:58:57;;;;;;;7.50;2.47;;;6.00;98.30;;;;;;5013620;28;20049;-73
2023/03/06 03:01:23;;;;;;;10.63;2.25;;;6.10;98.50;;;;;;5013610;28;20403;-71
2023/03/06 03:03:48;;;;;;;7.30;2.55;;;6.10;98.30;;;;;;5013675;28;20041;-74
2023/03/06 03:06:14;;;;;;;7.47;2.15;;;6.00;98.40;;;;;;5013526;28;20479;-71
2023/03/06 03:08:39;;;;;;;6.97;2.58;;;6.00;98.50;;;;;;5013361;28;20052;-73
2023/03/06 03:11:05;;;;;;;5.75;2.63;;;6.10;98.40;;;;;;5014024;28;20029;-71
2023/03/06 03:13:31;;;;;;;6.82;2.45;;;6.10;98.30;;;;;;5013334;28;20030;-72
2023/03/06 03:16:09;;;;;;;6.45;2.13;;;6.10;98.30;;;;;;5013319;28;20121;-72
2023/03/06 03:18:35;;;;;;;;;;;6.20;98.30;;;;;;5013704;28;20034;-71
2023/03/06 03:21:01;;;;;;;6.50;2.53;;;6.00;98.40;;;;;;5012247;28;20271;-73
2023/03/06 03:23:27;;;;;;;4.00;2.30;;;6.00;98.50;;;;;;5014027;28;20029;-72
2023/03/06 03:25:52;;;;;;;5.38;2.50;;;5.90;98.60;;;;;;5013347;28;20050;-72
2023/03/06 03:28:18;;;;;;;7.72;2.97;;;5.80;98.50;;;;;;5012808;28;20026;-72
2023/03/06 03:30:44;;;;;;;8.38;2.70;;;5.80;98.70;;;;;;5012844;28;20041;-73
2023/03/06 03:33:10;;;;;;;8.02;2.58;;;5.70;99.00;;;;;;5011914;28;20038;-72
2023/03/06 03:35:36;;;;;;;5.03;2.38;;;5.80;98.90;;;;;;5012892;28;20028;-73
2023/03/06 03:38:01;;;;;;;7.18;2.05;;;5.70;98.80;;;;;;5013490;28;20427;-72
2023/03/06 03:40:28;;;;;;;10.18;2.42;;;5.80;98.90;;;;;;5012909;28;20433;-73
2023/03/06 03:42:53;;;;;;;6.97;2.10;;;5.80;98.70;;;;;;5012859;28;20449;-75
2023/03/06 03:45:19;;;;;;;9.60;2.47;;;5.90;98.50;;;;;;5011831;28;20076;-73
2023/03/06 03:47:45;;;;;;;6.15;2.60;;;5.90;98.50;;;;;;5012812;28;20412;-71
2023/03/06 03:50:11;;;;;;;7.28;2.60;;;5.90;98.60;;;;;;5012030;28;20026;-72
2023/03/06 03:52:37;;;;;;;12.15;2.70;;;5.90;98.70;;;;;;5012913;28;20508;-73
2023/03/06 03:55:03;;;;;;;5.32;2.40;;;5.80;99.00;;;;;;5011531;28;20494;-74
2023/03/06 03:57:29;;;;;;;6.13;2.33;;;5.80;98.70;;;;;;5012433;28;20452;-72
2023/03/06 03:59:55;;;;;;;4.90;2.50;;;5.60;99.00;;;;;;5011321;28;20212;-71
2023/03/06 04:02:20;;;;;;;5.97;2.53;;;5.60;99.20;;;;;;5012860;28;20080;-71
2023/03/06 04:04:47;;;;;;;6.90;2.13;;;5.60;99.10;;;;;;5011380;28;20468;-72
2023/03/06 04:07:13;;;;;;;10.95;2.70;;;5.60;99.20;;;;;;5012422;28;20033;-71
2023/03/06 04:09:38;;;;;;;10.07;2.70;;;5.70;99.00;;;;;;5011078;28;20449;-72
2023/03/06 04:12:05;;;;;;;6.18;2.28;;;5.60;99.10;;;;;;5012271;28;20114;-72
2023/03/06 04:14:30;;;;;;;5.88;2.72;;;5.80;99.10;;;;;;5012629;28;20022;-72
2023/03/06 04:16:56;;;;;;;7.85;2.80;;;5.70;98.90;;;;;;5011156;28;20037;-73
2023/03/06 04:19:22;;;;;;;7.05;2.10;;;5.70;99.00;;;;;;5012001;28;20038;-73
2023/03/06 04:21:48;;;;;;;8.95;2.60;;;5.70;98.90;;;;;;5012059;28;20061;-71
2023/03/06 04:24:13;;;;;;;7.40;2.80;;;5.70;99.00;;;;;;5010692;28;20057;-73
2023/03/06 04:26:39;;;;;;;8.35;2.53;;;5.80;98.90;;;;;;5012152;28;20020;-71
2023/03/06 04:29:05;;;;;;;6.72;2.55;;;5.80;98.80;;;;;;5012198;28;20038;-73
2023/03/06 04:31:31;;;;;;;6.57;2.47;;;5.80;98.70;;;;;;5010518;28;20099;-73
2023/03/06 04:33:56;;;;;;;7.03;2.40;;;5.80;98.80;;;;;;5011728;28;20080;-73
2023/03/06 04:36:29;;;;;;;5.68;2.75;;;5.70;99.00;;;;;;5011836;28;20364;-73
2023/03/06 04:38:54;;;;;;;6.65;2.50;;;5.80;99.00;;;;;;5010625;28;20071;-72
2023/03/06 04:41:20;;;;;;;7.25;2.42;;;5.90;98.90;;;;;;5011137;28;20030;-71
2023/03/06 04:43:46;;;;;;;5.03;2.25;;;5.80;98.90;;;;;;5010580;28;20040;-72
2023/03/06 04:46:12;;;;;;;7.25;2.58;;;5.80;99.10;;;;;;5011734;28;20184;-72
2023/03/06 04:48:37;;;;;;;8.73;2.58;;;5.90;99.00;;;;;;5011521;28;20039;-73
2023/03/06 04:51:03;;;;;;;10.05;2.35;;;6.00;98.90;;;;;;5011509;28;20038;-72
2023/03/06 04:53:29;;;;;;;5.07;2.63;;;6.00;98.90;;;;;;5012441;28;20116;-73
2023/03/06 04:55:55;;;;;;;8.30;2.70;;;6.00;98.80;;;;;;5010968;28;20169;-72
2023/03/06 04:58:20;;;;;;;10.38;2.55;;;6.10;98.90;;;;;;5010399;28;20054;-72
2023/03/06 05:00:46;;;;;;;4.95;2.35;;;6.00;99.00;;;;;;5011308;28;20116;-72
2023/03/06 05:03:13;;;;;;;8.48;2.40;;;6.00;99.00;;;;;;5011603;28;20030;-72
2023/03/06 05:05:39;;;;;;;5.20;2.60;;;6.10;99.10;;;;;;5011324;28;20037;-72
2023/03/06 05:08:04;;;;;;;9.45;2.45;;;5.90;99.40;;;;;;5011540;28;20367;-73
2023/03/06 05:10:30;;;;;;;7.10;2.78;;;6.00;99.40;;;;;;5010931;28;20033;-72
2023/03/06 05:12:56;;;;;;;9.40;2.67;;;6.10;99.40;;;;;;5011270;28;20045;-74
2023/03/06 05:15:22;;;;;;;7.43;2.45;;;6.10;99.40;;;;;;5011239;28;20085;-72
2023/03/06 05:17:47;;;;;;;5.68;2.75;;;6.00;99.60;;;;;;5011177;28;20014;-72
2023/03/06 05:20:14;;;;;;;7.57;2.75;;;6.10;99.50;;;;;;5010602;28;20515;-72
2023/03/06 05:22:41;;;;;;;12.57;2.80;;;6.10;99.40;;;;;;5011160;28;20076;-73
2023/03/06 05:25:09;;;;;;;9.43;2.70;;;6.00;99.70;;;;;;5011081;28;20397;-72
2023/03/06 05:27:35;;;;;;;5.70;2.90;;;5.70;99.90;;;;;;5010683;28;20038;-72
2023/03/06 05:30:01;;;;;;;9.68;2.92;;;5.80;99.90;;;;;;5010735;28;20052;-72
2023/03/06 05:32:27;;;;;;;7.70;2.92;;;5.80;99.90;;;;;;5010514;28;20113;-72
2023/03/06 05:34:53;;;;;;;7.90;3.13;;;5.90;99.90;;;;;;5011156;28;20041;-73
2023/03/06 05:37:19;;;;;;;7.00;3.15;;;5.90;99.90;;;;;;5010957;28;20095;-74
2023/03/06 05:39:44;;;;;;;13.68;3.80;;;5.80;99.90;;;;;;5010726;28;20041;-72
2023/03/06 05:42:10;;;;;;;8.25;3.10;;;5.80;99.90;;;;;;5010614;28;20113;-72
2023/03/06 05:44:36;;;;;;;7.93;3.67;;;5.90;99.90;;;;;;5010843;28;20018;-71
2023/03/06 05:47:02;;;;;;;7.68;3.22;;;5.90;99.90;;;;;;5011265;28;20449;-72
2023/03/06 05:49:32;;;;;;;9.57;3.83;;;5.90;99.90;;;;;;5010768;28;20037;-73
2023/03/06 05:51:58;;;;;;;8.18;2.75;;;5.90;99.90;;;;;;5010718;28;20092;-73
2023/03/06 05:54:25;;;;;;;11.43;3.33;;;5.90;99.90;;;;;;5010534;28;20030;-72
2023/03/06 05:56:51;;;;;;;8.63;3.30;;;5.80;99.90;;;;;;5010548;28;20432;-71
2023/03/06 05:59:17;;;;;;;8.80;3.13;;;5.80;99.90;;;;;;5011024;28;20025;-73
2023/03/06 06:01:44;;;;;;;8.90;3.28;;;5.90;99.90;;;;;;5009573;28;20077;-72
2023/03/06 06:04:10;;;;;;;14.93;3.67;;;5.90;99.90;;;;;;5009700;28;20022;-72
2023/03/06 06:06:36;;;;;;;13.40;3.58;;;6.10;99.90;;;;;;5011461;28;20030;-73
2023/03/06 06:09:02;;;;;;;8.10;3.38;;;5.90;99.90;;;;;;5014450;28;20056;-72
2023/03/06 06:11:28;;;;;;;8.40;3.97;;;5.90;99.90;;;;;;5014879;28;20106;-74
2023/03/06 06:13:54;;;;;;;9.60;4.07;;;6.00;99.90;;;;;;5014455;28;20231;-72
2023/03/06 06:16:19;;;;;;;8.05;3.70;;;6.00;99.90;;;;;;5014342;28;20184;-72
2023/03/06 06:18:45;;;;;;;9.18;3.80;;;6.00;99.90;;;;;;5014318;28;20029;-72
2023/03/06 06:21:13;;;;;;;10.63;3.70;;;6.00;99.90;;;;;;5014174;28;20411;-72
2023/03/06 06:23:39;;;;;;;10.70;4.22;;;6.00;99.90;;;;;;5013671;28;20308;-73
2023/03/06 06:26:07;;;;;;;10.35;3.80;;;6.20;99.90;;;;;;5013425;28;20033;-73
2023/03/06 06:28:33;;;;;;;5.70;3.45;;;6.30;99.90;;;;;;5013847;28;20121;-74
2023/03/06 06:30:59;;;;;;;8.05;3.58;;;6.40;99.90;;;;;;5013936;28;20053;-71
2023/03/06 06:33:25;;;;;;;6.43;3.00;;;6.40;99.90;;;;;;5014269;28;20045;-72
2023/03/06 06:35:51;;;;;;;9.50;3.05;;;6.40;99.90;;;;;;5014265;28;20026;-74
2023/03/06 06:38:18;;;;;;;6.07;3.40;;;6.30;99.90;;;;;;5013304;28;20030;-72
2023/03/06 06:40:43;;;;;;;12.15;3.22;;;6.30;99.90;;;;;;5012871;28;20500;-73
2023/03/06 06:43:09;;;;;;;6.68;3.35;;;6.30;99.90;;;;;;5013857;28;20126;-73
2023/03/06 06:45:35;;;;;;;10.23;3.08;;;6.30;99.90;;;;;;5013745;28;20065;-74
2023/03/06 06:48:00;;;;;;;6.30;3.42;;;6.30;99.90;;;;;;5013616;28;20030;-73
2023/03/06 06:50:26;;;;;;;6.18;3.42;;;6.30;99.90;;;;;;5012883;28;20034;-72
2023/03/06 06:52:52;;;;;;;7.50;3.30;;;6.30;99.90;;;;;;5013543;28;20061;-72
2023/03/06 06:55:18;;;;;;;5.78;3.30;;;6.30;99.90;;;;;;5013631;28;20034;-72
2023/03/06 06:57:44;;;;;;;7.45;3.30;;;6.20;99.90;;;;;;5013483;28;20033;-74
2023/03/06 07:00:13;;;;;;;7.43;3.67;;;6.20;99.90;;;;;;5013536;28;20129;-77
2023/03/06 07:02:38;;;;;;;9.63;4.18;;;6.20;99.90;;;;;;5013847;28;20029;-74
2023/03/06 07:05:04;;;;;;;6.47;3.10;;;6.20;99.90;;;;;;5013982;28;20333;-74
2023/03/06 07:07:33;;;;;;;8.50;3.55;;;6.10;99.90;;;;;;5013320;28;20228;-75
2023/03/06 07:09:59;;;;;;;5.90;3.25;;;6.20;99.90;;;;;;5013254;28;20518;-76
2023/03/06 07:12:24;;;;;;;11.10;4.10;;;6.10;99.90;;;;;;5012260;28;20030;-75
2023/03/06 07:14:50;;;;;;;8.07;4.50;;;6.10;99.90;;;;;;5013428;28;20025;-76
2023/03/06 07:17:16;;;;;;;7.95;4.05;;;6.00;99.90;;;;;;5013568;28;20037;-75
2023/03/06 07:19:41;;;;;;;7.78;4.10;;;6.00;99.90;;;;;;5011923;28;20034;-73
2023/03/06 07:22:07;;;;;;;7.30;4.05;;;6.00;99.90;;;;;;5013079;28;20045;-73
2023/03/06 07:24:35;;;;;;;7.10;3.72;;;6.00;99.90;;;;;;5011924;28;20134;-74
2023/03/06 07:27:01;;;;;;;8.50;4.05;;;6.00;99.90;;;;;;5012994;28;20054;-73
2023/03/06 07:29:34;;;;;;;11.57;4.72;;;6.00;99.90;;;;;;5012175;28;20088;-73
2023/03/06 07:32:00;;;;;;;7.45;4.07;;;6.10;99.90;;;;;;5011805;28;20029;-74
2023/03/06 07:34:26;;;;;;;9.40;4.65;;;6.10;99.90;;;;;;5013013;28;20037;-73
2023/03/06 07:36:51;;;;;;;9.27;4.53;;;6.10;99.90;;;;;;5012668;28;20030;-73
2023/03/06 07:39:17;;;;;;;10.75;3.65;;;6.00;99.90;;;;;;5012757;28;20053;-74
2023/03/06 07:41:43;;;;;;;11.88;4.15;;;5.90;99.90;;;;;;5011992;28;20057;-73
2023/03/06 07:44:08;;;;;;;8.65;4.63;;;5.90;99.90;;;;;;5013233;28;20034;-72
2023/03/06 07:46:34;;;;;;;8.30;3.45;;;5.90;99.90;;;;;;5012689;28;20034;-73
2023/03/06 07:49:00;;;;;;;7.10;3.85;;;5.80;99.90;;;;;;5012454;28;20411;-72
2023/03/06 07:51:25;;;;;;;11.57;4.68;;;5.80;99.90;;;;;;5012359;28;20050;-72
2023/03/06 07:53:51;;;;;;;8.57;4.28;;;5.80;99.90;;;;;;5012351;28;20033;-75
2023/03/06 07:56:17;;;;;;;6.75;3.33;;;5.70;99.90;;;;;;5011818;28;20026;-74
2023/03/06 07:58:45;;;;;;;9.85;4.50;;;5.70;99.90;;;;;;5012438;28;20349;-74
2023/03/06 08:01:13;;;;;;;9.43;5.18;;;5.80;99.90;;;;;;5012280;28;20054;-74
2023/03/06 08:03:39;;;;;;;7.90;3.95;;;5.70;99.90;;;;;;5012214;28;20060;-73
2023/03/06 08:06:25;;;;;;;10.40;4.07;;;5.80;99.90;;;;;;5011980;28;20448;-71
2023/03/06 08:08:52;;;;;;;7.38;3.70;;;5.80;99.90;;;;;;5010859;28;20380;-72
2023/03/06 08:11:21;;;;;;;6.80;3.78;;;5.80;99.90;;;;;;5012597;28;20034;-73
2023/03/06 08:13:47;;;;;;;8.05;3.35;;;5.70;99.90;;;;;;5012103;28;20026;-73
2023/03/06 08:16:14;;;;;;;7.20;3.50;;;5.70;99.90;;;;;;5012141;28;20057;-73
2023/03/06 08:18:40;;;;;;;3.30;2.13;;;5.80;99.90;;;;;;5012034;28;20038;-73
2023/03/06 08:21:13;;;;;;;4.05;1.52;;;5.80;99.90;;;;;;5011850;28;20034;-74
2023/03/06 08:23:39;;;;;;;4.25;1.30;;;5.70;99.90;;;;;;5011720;28;20431;-75
2023/03/06 08:26:13;;;;;;;3.30;1.83;;;5.70;99.90;;;;;;5011364;28;20105;-75
2023/03/06 08:28:39;;;;;;;4.80;2.08;;;5.70;99.90;;;;;;5011700;28;20053;-72
2023/03/06 08:31:17;;;;;;;3.67;1.45;;;5.70;99.90;;;;;;5010936;28;20045;-72
2023/03/06 08:33:42;;;;;;;2.83;1.42;;;5.70;99.90;;;;;;5010784;28;20038;-70
2023/03/06 08:36:09;;;;;;;2.75;1.42;;;5.70;99.90;;;;;;5011381;28;20088;-70
2023/03/06 08:38:34;;;;;;;4.90;1.63;;;5.60;99.90;;;;;;5012345;28;20096;-71
2023/03/06 08:41:00;;;;;;;2.65;1.48;;;5.60;99.90;;;;;;5011934;28;20361;-71
2023/03/06 08:43:26;;;;;;;3.83;1.55;;;5.70;99.90;;;;;;5010537;28;20337;-71
2023/03/06 08:45:53;;;;;;;3.00;1.70;;;5.70;99.90;;;;;;5010809;28;20049;-71
2023/03/06 08:48:19;;;;;;;4.93;1.97;;;5.70;99.90;;;;;;5010617;28;20022;-71
2023/03/06 08:50:45;;;;;;;5.15;1.95;;;5.70;99.90;;;;;;5012071;28;20717;-70
2023/03/06 08:53:10;;;;;;;3.15;1.73;;;5.80;99.90;;;;;;5011741;28;20101;-70
2023/03/06 08:55:37;;;;;;;6.55;2.28;;;5.60;99.90;;;;;;5011393;28;20330;-71
2023/03/06 08:58:03;;;;;;;5.40;1.95;;;5.70;99.90;;;;;;5011461;28;20026;-72
2023/03/06 09:00:30;;;;;;;4.50;1.88;;;5.60;99.90;;;;;;5011861;28;20048;-72
2023/03/06 09:02:56;;;;;;;5.75;2.00;;;5.60;99.90;;;;;;5010404;28;20506;-72
2023/03/06 09:05:21;;;;;;;3.45;1.58;;;5.50;99.90;;;;;;5010778;28;20048;-73
2023/03/06 09:07:47;;;;;;;4.80;2.05;;;5.50;99.90;;;;;;5010344;28;20376;-74
2023/03/06 09:10:16;;;;;;;2.28;1.48;;;5.50;99.90;;;;;;5011369;28;20081;-74
2023/03/06 09:12:42;;;;;;;7.47;1.63;;;5.50;99.90;;;;;;5011332;28;20025;-73
2023/03/06 09:15:08;;;;;;;3.92;1.55;;;5.40;99.90;;;;;;5011184;28;20060;-74
2023/03/06 09:17:34;;;;;;;4.32;1.55;;;5.50;99.90;;;;;;5011456;28;20022;-72
2023/03/06 09:19:59;;;;;;;4.03;1.45;;;5.50;99.90;;;;;;5011073;28;20038;-73
2023/03/06 09:22:25;;;;;;;5.32;1.58;;;5.50;99.90;;;;;;5011087;28;20056;-73
2023/03/06 09:24:51;;;;;;;2.17;1.50;;;5.40;99.90;;;;;;5011303;28;20113;-74
2023/03/06 09:27:17;;;;;;;1.77;0.90;;;5.40;99.90;;;;;;5009739;28;20353;-74
2023/03/06 09:29:42;;;;;;;3.05;1.20;;;5.30;99.90;;;;;;5009976;28;20042;-72
2023/03/06 09:32:08;;;;;;;3.28;1.48;;;5.50;99.90;;;;;;5011371;28;20037;-72
2023/03/06 09:34:34;;;;;;;7.85;1.70;;;5.40;99.90;;;;;;5011176;28;20475;-73
2023/03/06 09:37:03;;;;;;;2.55;1.67;;;5.50;99.90;;;;;;5010863;28;20206;-74
2023/03/06 09:39:29;;;;;;;3.33;1.55;;;5.40;99.90;;;;;;5010820;28;20058;-73
2023/03/06 09:41:57;;;;;;;3.20;1.88;;;5.40;99.90;;;;;;5009584;28;20060;-74
2023/03/06 09:44:33;;;;;;;2.10;1.10;;;5.40;99.90;;;;;;5010346;28;20126;-73
2023/03/06 09:47:18;;;;;;;3.50;1.10;;;5.40;99.90;;;;;;5011129;28;20030;-74
2023/03/06 09:49:58;;;;;;;1.85;0.85;;;5.40;99.90;;;;;;5011023;28;20536;-75
2023/03/06 09:52:35;;;;;;;4.82;0.85;;;5.40;99.90;;;;;;5010831;28;20296;-75
2023/03/06 09:55:10;;;;;;;4.55;0.55;;;5.40;99.90;;;;;;5009825;28;20062;-74
2023/03/06 09:57:40;;;;;;;1.70;0.73;;;5.30;99.90;;;;;;5010648;28;20113;-72
2023/03/06 10:00:18;;;;;;;8.13;0.93;;;5.30;99.90;;;;;;5010639;28;20460;-74
2023/03/06 10:02:49;;;;;;;6.00;1.35;;;5.30;99.90;;;;;;5010775;28;20371;-70
2023/03/06 10:05:27;;;;;;;3.17;1.08;;;5.30;99.90;;;;;;5011204;28;20029;-70
2023/03/06 10:07:59;;;;;;;6.95;1.20;;;5.40;99.90;;;;;;5010666;28;20038;-72
2023/03/06 10:10:35;;;;;;;3.70;0.80;;;5.40;99.90;;;;;;5010516;28;20026;-73
2023/03/06 10:13:02;;;;;;;2.70;0.77;;;5.40;99.90;;;;;;5009584;28;20102;-74
2023/03/06 10:15:34;;;;;;;4.60;1.35;;;5.40;99.90;;;;;;5009762;28;20379;-73
2023/03/06 10:18:02;;;;;;;7.10;1.50;;;5.40;99.90;;;;;;5010413;28;20452;-74
2023/03/06 10:20:39;;;;;;;3.83;0.85;;;5.50;99.90;;;;;;5010980;28;20454;-73
2023/03/06 10:23:33;;;;;;;4.05;0.93;;;5.50;99.90;;;;;;5010623;28;20164;-73
2023/03/06 10:26:06;;;;;;;9.65;1.35;;;5.50;99.90;;;;;;5010707;28;20113;-73
2023/03/06 10:28:41;;;;;;;4.00;1.20;;;5.50;99.90;;;;;;5009085;28;20022;-72
2023/03/06 10:31:21;;;;;;;26.20;9.20;;;5.50;99.90;;;;;;5010335;28;20121;-72
2023/03/06 10:34:11;;;;;;;5.57;2.42;;;5.50;99.90;;;;;;5010414;28;20096;-72
2023/03/06 10:36:36;;;;;;;5.93;1.48;;;5.60;99.90;;;;;;5010274;28;20124;-71
2023/03/06 10:39:12;;;;;;;2.38;1.00;;;5.60;99.90;;;;;;5010436;28;20132;-71
2023/03/06 10:41:38;;;;;;;1.30;0.60;;;5.70;99.90;;;;;;5010375;28;20138;-71
2023/03/06 10:44:03;;;;;;;1.42;0.40;;;5.60;99.90;;;;;;5010846;28;20423;-72
2023/03/06 10:46:35;;;;;;;2.13;0.70;;;5.70;99.90;;;;;;5009266;28;20030;-71
2023/03/06 10:49:19;;;;;;;0.88;0.43;;;5.70;99.90;;;;;;5010525;28;20041;-73
2023/03/06 10:52:17;;;;;;;0.30;0.17;;;5.80;99.90;;;;;;5010537;28;20460;-72
2023/03/06 10:54:43;;;;;;;6.47;0.55;;;5.80;99.30;;;;;;5012579;28;20048;-72
2023/03/06 10:57:20;;;;;;;1.65;0.40;;;5.90;99.40;;;;;;5012787;28;20356;-72
2023/03/06 10:59:54;;;;;;;4.40;1.42;;;6.40;99.40;;;;;;5013541;28;20036;-72
2023/03/06 11:02:30;;;;;;;2.03;0.40;;;6.90;98.50;;;;;;5014064;28;20029;-72
2023/03/06 11:04:58;;;;;;;0.65;0.30;;;6.90;97.70;;;;;;5013545;28;20038;-72
2023/03/06 11:07:32;;;;;;;0.75;0.50;;;7.00;98.30;;;;;;5013564;28;20033;-73
2023/03/06 11:10:18;;;;;;;1.08;0.80;;;7.00;97.60;;;;;;5013454;28;20038;-71
2023/03/06 11:13:09;;;;;;;1.50;0.55;;;6.80;97.40;;;;;;5013610;28;20473;-72
2023/03/06 11:15:35;;;;;;;2.95;1.23;;;6.90;97.70;;;;;;5012438;28;20056;-71
2023/03/06 11:18:08;;;;;;;1.73;0.77;;;6.70;98.20;;;;;;5013007;28;20322;-71
2023/03/06 11:20:54;;;;;;;2.45;0.80;;;6.70;97.80;;;;;;5013769;28;20421;-72
2023/03/06 11:23:41;;;;;;;38.65;21.13;;;6.70;98.20;;;;;;5013267;28;20866;-72
2023/03/06 11:26:14;;;;;;;15.45;6.60;;;6.70;97.80;;;;;;5013243;28;20057;-73
2023/03/06 11:28:59;;;;;;;5.53;1.58;;;6.80;98.40;;;;;;5012719;28;20519;-72
2023/03/06 11:31:30;;;;;;;2.30;1.15;;;6.90;98.40;;;;;;5011811;28;20100;-73
2023/03/06 11:34:05;;;;;;;3.45;0.90;;;6.90;98.10;;;;;;5012891;28;20038;-73
2023/03/06 11:37:04;;;;;;;4.28;0.90;;;6.90;98.40;;;;;;5011663;28;20038;-74
2023/03/06 11:39:43;;;;;;;2.10;0.70;;;7.00;98.50;;;;;;5012882;28;20459;-74
2023/03/06 11:42:20;;;;;;;3.80;0.98;;;6.90;98.30;;;;;;5013095;28;20130;-73
2023/03/06 11:45:01;;;;;;;3.97;1.05;;;7.00;98.10;;;;;;5012608;28;20079;-72
2023/03/06 11:47:39;;;;;;;2.17;0.95;;;7.20;98.00;;;;;;5013200;28;20029;-72
2023/03/06 11:50:10;;;;;;;2.72;1.13;;;7.00;97.70;;;;;;5013110;28;20121;-72
2023/03/06 11:52:38;;;;;;;4.40;1.02;;;7.00;97.80;;;;;;5011352;28;20083;-72
2023/03/06 11:55:11;;;;;;;2.30;1.00;;;7.00;97.90;;;;;;5012517;28;20124;-72
2023/03/06 11:57:56;;;;;;;2.60;1.02;;;7.30;97.70;;;;;;5012621;28;20103;-71
2023/03/06 12:00:49;;;;;;;4.68;1.10;;;7.30;97.00;;;;;;5011393;28;20475;-71
2023/03/06 12:03:30;;;;;;;2.58;0.93;;;7.40;97.10;;;;;;5012508;28;20022;-72
2023/03/06 12:06:13;;;;;;;4.28;1.00;;;7.50;97.30;;;;;;5012516;28;20038;-70
2023/03/06 12:09:06;;;;;;;4.60;1.85;;;7.60;96.80;;;;;;5012276;28;20036;-71
2023/03/06 12:12:00;;;;;;;3.38;1.02;;;7.70;96.30;;;;;;5012920;28;20040;-71
2023/03/06 12:14:59;;;;;;;10.50;2.00;;;7.60;95.70;;;;;;5012358;28;20068;-71
2023/03/06 12:17:42;;;;;;;2.30;0.90;;;7.70;95.90;;;;;;5012713;28;20034;-71
2023/03/06 12:20:51;;;;;;;3.15;1.00;;;7.60;95.30;;;;;;5011172;28;20050;-71
2023/03/06 12:23:29;;;;;;;2.58;0.50;;;7.60;95.30;;;;;;5011132;28;20385;-71
2023/03/06 12:26:04;;;;;;;2.70;1.02;;;7.70;94.90;;;;;;5011891;28;20034;-71
2023/03/06 12:28:50;;;;;;;5.18;1.05;;;7.60;94.60;;;;;;5011907;28;20470;-73
2023/03/06 12:31:42;;;;;;;1.90;0.90;;;7.60;95.00;;;;;;5011940;28;20430;-72
2023/03/06 12:34:30;;;;;;;4.40;0.60;;;7.60;94.80;;;;;;5010968;28;20345;-71
2023/03/06 12:37:28;;;;;;;;;;;7.60;94.60;;;;;;5012396;28;20037;-72
2023/03/06 12:40:21;;;;;;;9.80;7.28;;;7.70;95.00;;;;;;5010391;28;19925;-72
2023/03/06 12:43:09;;;;;;;4.18;0.60;;;7.90;95.10;;;;;;5011707;28;20033;-72
2023/03/06 12:45:36;;;;;;;2.15;0.70;;;7.90;93.70;;;;;;5011572;28;20034;-72
2023/03/06 12:48:03;;;;;;;1.38;0.70;;;8.10;94.50;;;;;;5011409;28;20034;-71
2023/03/06 12:50:37;;;;;;;11.90;2.13;;;8.20;94.00;;;;;;5010983;28;20030;-71
2023/03/06 12:53:11;;;;;;;5.55;2.00;;;8.40;93.60;;;;;;5010754;28;20106;-73
2023/03/06 12:55:45;;;;;;;3.95;0.93;;;8.50;93.40;;;;;;5010381;28;20122;-71
2023/03/06 12:58:30;;;;;;;13.10;3.78;;;8.50;92.80;;;;;;5011370;28;20555;-71
2023/03/06 13:01:07;;;;;;;4.22;0.52;;;8.50;92.30;;;;;;5010884;28;20061;-70
2023/03/06 13:03:53;;;;;;;2.97;0.70;;;8.40;92.30;;;;;;5011109;28;20030;-71
2023/03/06 13:06:40;;;;;;;3.47;0.70;;;8.40;92.20;;;;;;5006138;28;20418;-70
2023/03/06 13:09:21;;;;;;;1.35;0.60;;;8.30;91.80;;;;;;5010888;28;20088;-72